Weather History for Eastsound, WA

Change the Weather History Date:

Monday, April 14, 2014

  Actual Average (KBLI) Record (KBLI)
Temperature  
Mean Temperature 50 °F 48 °F  
Max Temperature 62 °F 57 °F 74 °F (1984)
Min Temperature 37 °F 40 °F 29 °F (2001)
Degree Days  
Heating Degree Days 16 17  
Month to date heating degree days 247  
Cooling Degree Days 0 0  
Month to date cooling degree days 0  
Year to date cooling degree days 0  
Moisture  
Dew Point 36 °F    
Average Humidity 62    
Maximum Humidity 100    
Minimum Humidity 39    
Precipitation  
Precipitation 0.00 in 0.09 in 0.66 in (2000)
Month to date precipitation 1.36  
Year to date precipitation 12.27  
Sea Level Pressure  
Sea Level Pressure 30.09 in    
Wind  
Wind Speed 2 mph (SW)    
Max Wind Speed 13 mph    
Max Gust Speed 18 mph    
Visibility 10 miles    
Events      
T = Trace of Precipitation, MM = Missing Value Source: NWS Daily Summary

Daily Weather History Graph

Daily Weather History Graph

Search for Another Location

Airport:

Trip Planner

Search our weather history database for the weather conditions in past years. The results will help you decide how hot, cold, wet, or windy it might be!

Date:

Astronomy

Apr. 14, 2014 Rise Set
Actual Time 6:22 AM PDT 8:01 PM PDT
Civil Twilight 5:49 AM PDT 8:35 PM PDT
Nautical Twilight 5:09 AM PDT 9:15 PM PDT
Astronomical Twilight 4:25 AM PDT 10:00 PM PDT
Moon 7:45 PM PDT (4/14) 6:01 AM PDT (4/14)
Length of Visible Light 14h 45m
Length of Day
13h 39m
Full, 100% of the Moon is Illuminated
Apr 14
Full
Apr 15
Full
Apr 22
Last Quarter
Apr 28
New
May 6
First Quarter

Hourly Weather History & Observations

Time (PDT) Temp. Dew Point Humidity Pressure Visibility Wind Dir Wind Speed Gust Speed Precip Events Conditions
12:15 AM 41.0 °F 32.0 °F 70% 30.18 in 10.0 mi Calm Calm - N/A   Clear
12:35 AM 42.8 °F 32.0 °F 66% 30.18 in 10.0 mi Calm Calm - N/A   Clear
1:00 AM 41.0 °F 32.0 °F 70% 30.17 in 10.0 mi Calm Calm - N/A   Clear
1:15 AM 41.0 °F 32.0 °F 70% 30.17 in 10.0 mi Calm Calm - N/A   Clear
1:35 AM 41.0 °F 32.0 °F 70% 30.17 in 10.0 mi Calm Calm - N/A   Clear
1:55 AM 39.2 °F 33.8 °F 81% 30.17 in 10.0 mi Calm Calm - N/A   Clear
2:15 AM 41.0 °F 33.8 °F 76% 30.16 in 10.0 mi Calm Calm - N/A   Clear
2:35 AM 39.2 °F 33.8 °F 81% 30.15 in 10.0 mi Calm Calm - N/A   Clear
2:55 AM 41.0 °F 33.8 °F 76% 30.14 in 10.0 mi Calm Calm - N/A   Clear
3:15 AM 39.2 °F 33.8 °F 81% 30.14 in 9.0 mi Calm Calm - N/A   Clear
3:35 AM 39.2 °F 35.6 °F 87% 30.13 in 9.0 mi Calm Calm - N/A   Clear
3:55 AM 39.2 °F 35.6 °F 87% 30.13 in 10.0 mi Calm Calm - N/A   Clear
4:20 AM 39.2 °F 35.6 °F 87% 30.12 in 10.0 mi Calm Calm - N/A   Clear
4:35 AM 37.4 °F 35.6 °F 93% 30.12 in 10.0 mi Calm Calm - N/A   Clear
4:55 AM 37.4 °F 35.6 °F 93% 30.12 in 10.0 mi Calm Calm - N/A   Clear
5:15 AM 37.4 °F 35.6 °F 93% 30.12 in 10.0 mi Calm Calm - N/A   Clear
5:35 AM 39.2 °F 37.4 °F 93% 30.11 in 9.0 mi Calm Calm - N/A   Clear
5:55 AM 37.4 °F 37.4 °F 100% 30.11 in 10.0 mi Calm Calm - N/A   Clear
6:15 AM 37.4 °F 37.4 °F 100% 30.11 in 9.0 mi Calm Calm - N/A   Clear
6:35 AM 37.4 °F 37.4 °F 100% 30.12 in 8.0 mi Calm Calm - N/A   Clear
6:55 AM 37.4 °F 35.6 °F 93% 30.11 in 7.0 mi Calm Calm - N/A   Clear
7:15 AM 39.2 °F 35.6 °F 87% 30.11 in 8.0 mi Calm Calm - N/A   Clear
7:35 AM 39.2 °F 35.6 °F 87% 30.11 in 9.0 mi Calm Calm - N/A   Clear
7:55 AM 42.8 °F 37.4 °F 81% 30.11 in 9.0 mi Calm Calm - N/A   Clear
8:15 AM 46.4 °F 37.4 °F 71% 30.11 in 9.0 mi Calm Calm - N/A   Clear
8:35 AM 48.2 °F 33.8 °F 58% 30.11 in 9.0 mi Calm Calm - N/A   Clear
8:55 AM 50.0 °F 32.0 °F 50% 30.10 in 9.0 mi Calm Calm - N/A   Clear
9:15 AM 50.0 °F 32.0 °F 50% 30.10 in 10.0 mi Calm Calm - N/A   Clear
9:35 AM 50.0 °F 35.6 °F 58% 30.10 in 9.0 mi Calm Calm - N/A   Clear
9:55 AM 50.0 °F 35.6 °F 58% 30.10 in 10.0 mi Calm Calm - N/A   Clear
10:15 AM 50.0 °F 32.0 °F 50% 30.10 in 9.0 mi Calm Calm - N/A   Clear
10:35 AM 50.0 °F 33.8 °F 54% 30.10 in 10.0 mi Calm Calm - N/A   Clear
10:55 AM 50.0 °F 32.0 °F 50% 30.09 in 9.0 mi Calm Calm - N/A   Clear
11:15 AM 51.8 °F 33.8 °F 50% 30.09 in 10.0 mi North 4.6 mph - N/A   Clear
11:35 AM 53.6 °F 35.6 °F 51% 30.09 in 9.0 mi North 3.5 mph - N/A   Clear
11:55 AM 53.6 °F 35.6 °F 51% 30.09 in 10.0 mi North 5.8 mph - N/A   Clear
12:15 PM 53.6 °F 39.2 °F 58% 30.09 in 9.0 mi North 5.8 mph - N/A   Partly Cloudy
12:35 PM 51.8 °F 39.2 °F 62% 30.09 in 9.0 mi North 4.6 mph - N/A   Clear
12:55 PM 53.6 °F 37.4 °F 54% 30.09 in 9.0 mi North 4.6 mph - N/A   Clear
1:15 PM 53.6 °F 37.4 °F 54% 30.08 in 9.0 mi North 5.8 mph - N/A   Partly Cloudy
1:35 PM 53.6 °F 37.4 °F 54% 30.08 in 10.0 mi North 5.8 mph - N/A   Clear
1:55 PM 55.4 °F 37.4 °F 51% 30.07 in 9.0 mi North 3.5 mph - N/A   Partly Cloudy
2:15 PM 57.2 °F 39.2 °F 51% 30.06 in 10.0 mi Calm Calm - N/A   Partly Cloudy
2:35 PM 60.8 °F 37.4 °F 42% 30.06 in 10.0 mi SSW 10.4 mph - N/A   Clear
2:55 PM 62.6 °F 37.4 °F 39% 30.06 in 10.0 mi SSW 8.1 mph - N/A   Clear
3:15 PM 62.6 °F 37.4 °F 39% 30.05 in 9.0 mi South 5.8 mph - N/A   Clear
3:35 PM 62.6 °F 39.2 °F 42% 30.05 in 10.0 mi South 5.8 mph - N/A   Clear
3:55 PM 62.6 °F 37.4 °F 39% 30.04 in 10.0 mi South 11.5 mph - N/A   Clear
4:15 PM 62.6 °F 37.4 °F 39% 30.04 in 10.0 mi South 5.8 mph - N/A   Clear
4:35 PM 60.8 °F 39.2 °F 45% 30.03 in 10.0 mi South 6.9 mph - N/A   Clear
4:55 PM 60.8 °F 41.0 °F 48% 30.02 in 10.0 mi SSW 8.1 mph - N/A   Clear
5:15 PM 59.0 °F 41.0 °F 51% 30.01 in 10.0 mi SSW 9.2 mph - N/A   Clear
5:35 PM 59.0 °F 39.2 °F 48% 30.01 in 10.0 mi SSW 9.2 mph - N/A   Clear
5:55 PM 59.0 °F 41.0 °F 51% 30.01 in 9.0 mi South 8.1 mph - N/A   Clear
6:15 PM 59.0 °F 39.2 °F 48% 30.02 in 10.0 mi WSW 6.9 mph - N/A   Clear
6:35 PM 59.0 °F 39.2 °F 48% 30.02 in 9.0 mi WSW 6.9 mph - N/A   Clear
6:55 PM 59.0 °F 39.2 °F 48% 30.02 in 9.0 mi SW 6.9 mph - N/A   Clear
7:15 PM 57.2 °F 39.2 °F 51% 30.04 in 10.0 mi SSW 9.2 mph - N/A   Clear
7:35 PM 57.2 °F 37.4 °F 48% 30.02 in 9.0 mi SW 10.4 mph - N/A   Clear
7:55 PM 57.2 °F 37.4 °F 48% 30.02 in 10.0 mi SW 9.2 mph - N/A   Clear
8:15 PM 55.4 °F 37.4 °F 51% 30.03 in 10.0 mi SSW 11.5 mph - N/A   Clear
8:35 PM 53.6 °F 37.4 °F 54% 30.04 in 10.0 mi South 9.2 mph - N/A   Clear
8:55 PM 53.6 °F 37.4 °F 54% 30.05 in 10.0 mi SSW 12.7 mph 16.1 mph N/A   Clear
9:15 PM 51.8 °F 35.6 °F 54% 30.06 in 10.0 mi South 5.8 mph - N/A   Clear
9:35 PM 50.0 °F 35.6 °F 58% 30.06 in 10.0 mi SSW 9.2 mph - N/A   Clear
10:00 PM 51.8 °F 32.0 °F 47% 30.05 in 10.0 mi SW 9.2 mph 16.1 mph N/A   Clear
10:15 PM 51.8 °F 32.0 °F 47% 30.06 in 10.0 mi SSW 9.2 mph 18.4 mph N/A   Clear
10:35 PM 50.0 °F 32.0 °F 50% 30.08 in 10.0 mi South 4.6 mph - N/A   Clear
10:55 PM 50.0 °F 32.0 °F 50% 30.07 in 10.0 mi SW 8.1 mph 18.4 mph N/A   Clear
11:15 PM 50.0 °F 33.8 °F 54% 30.08 in 10.0 mi SW 10.4 mph - N/A   Clear
11:35 PM 50.0 °F 33.8 °F 54% 30.08 in 10.0 mi South 4.6 mph - N/A   Clear
11:55 PM 50.0 °F 35.6 °F 58% 30.08 in 10.0 mi West 10.4 mph - N/A   Clear